Time;durP1;ratioP1;P1;durP2;ratioP2;P2;SDS_P1;SDS_P2;PMS_P1;PMS_P2;Temp;Humidity;BMP_temperature;BMP_pressure;BME280_temperature;BME280_humidity;BME280_pressure;Samples;Min_cycle;Max_cycle;Signal;HPM_P1;HPM_P2
2021/03/22 00:01:08;;;;;;;23.57;4.23;;;;;;;;;;4969442;28;20513;-48
2021/03/22 00:03:34;;;;;;;21.90;4.30;;;;;;;;;;4980035;28;20184;-48
2021/03/22 00:05:59;;;;;;;18.87;3.30;;;;;;;;;;4976081;28;20237;-47
2021/03/22 00:08:24;;;;;;;19.77;4.13;;;;;;;;;;4966724;28;20332;-47
2021/03/22 00:10:51;;;;;;;22.07;3.73;;;;;;;;;;4983561;28;20199;-48
2021/03/22 00:13:18;;;;;;;18.37;4.17;;;;;;;;;;4988592;28;20195;-47
2021/03/22 00:15:44;;;;;;;26.97;4.77;;;;;;;;;;4966931;28;20203;-47
2021/03/22 00:18:13;;;;;;;19.33;3.93;;;;;;;;;;4985030;28;20203;-47
2021/03/22 00:20:38;;;;;;;21.47;3.87;;;;;;;;;;4968330;28;20764;-48
2021/03/22 00:23:04;;;;;;;23.03;4.23;;;;;;;;;;4988375;28;20187;-46
2021/03/22 00:25:30;;;;;;;22.13;3.90;;;;;;;;;;4979022;28;20307;-47
2021/03/22 00:27:55;;;;;;;20.90;4.13;;;;;;;;;;4983826;28;20267;-48
2021/03/22 00:30:31;;;;;;;16.57;3.20;;;;;;;;;;4989924;28;20275;-48
2021/03/22 00:32:57;;;;;;;23.30;3.67;;;;;;;;;;4985174;28;20191;-47
2021/03/22 00:35:22;;;;;;;23.13;4.00;;;;;;;;;;4987968;28;20208;-47
2021/03/22 00:37:48;;;;;;;17.33;3.90;;;;;;;;;;4984631;28;20192;-48
2021/03/22 00:40:16;;;;;;;21.83;4.23;;;;;;;;;;4970950;28;20192;-47
2021/03/22 00:42:42;;;;;;;22.57;4.37;;;;;;;;;;4986743;28;20196;-47
2021/03/22 00:45:09;;;;;;;17.07;4.00;;;;;;;;;;4979503;28;20222;-47
2021/03/22 00:47:34;;;;;;;23.33;3.67;;;;;;;;;;4984351;28;20547;-47
2021/03/22 00:50:02;;;;;;;18.77;3.67;;;;;;;;;;4985593;28;20195;-49
2021/03/22 00:52:27;;;;;;;19.70;4.27;;;;;;;;;;4990577;28;20631;-47
2021/03/22 00:54:53;;;;;;;14.23;2.90;;;;;;;;;;4973134;28;20445;-47
2021/03/22 00:57:18;;;;;;;19.70;3.53;;;;;;;;;;4987738;28;20187;-47
2021/03/22 00:59:43;;;;;;;16.63;3.63;;;;;;;;;;4969707;28;20645;-49
2021/03/22 01:02:11;;;;;;;19.83;4.40;;;;;;;;;;4951140;28;20192;-47
2021/03/22 01:04:36;;;;;;;17.33;4.57;;;;;;;;;;4985774;28;20213;-47
2021/03/22 01:07:02;;;;;;;21.37;4.03;;;;;;;;;;4987207;28;20191;-48
2021/03/22 01:09:27;;;;;;;17.90;3.20;;;;;;;;;;4972750;28;20199;-48
2021/03/22 01:11:53;;;;;;;25.93;4.07;;;;;;;;;;4987988;28;20188;-47
2021/03/22 01:14:18;;;;;;;18.53;3.53;;;;;;;;;;4983181;28;20856;-47
2021/03/22 01:16:47;;;;;;;18.13;3.43;;;;;;;;;;4980839;28;20193;-47
2021/03/22 01:19:23;;;;;;;16.83;3.50;;;;;;;;;;4985651;28;20277;-47
2021/03/22 01:21:52;;;;;;;18.80;4.30;;;;;;;;;;4986475;28;20192;-48
2021/03/22 01:24:20;;;;;;;16.80;3.63;;;;;;;;;;4983685;28;20199;-47
2021/03/22 01:26:47;;;;;;;11.97;3.40;;;;;;;;;;4979653;28;20227;-46
2021/03/22 01:29:19;;;;;;;15.10;3.77;;;;;;;;;;4985658;28;20197;-47
2021/03/22 01:31:45;;;;;;;22.57;3.67;;;;;;;;;;4981543;28;20537;-47
2021/03/22 01:34:11;;;;;;;17.23;3.80;;;;;;;;;;4981683;28;20188;-48
2021/03/22 01:36:36;;;;;;;21.83;3.80;;;;;;;;;;4980378;28;20192;-46
2021/03/22 01:39:17;;;;;;;18.17;3.30;;;;;;;;;;4982350;28;20196;-48
2021/03/22 01:42:01;;;;;;;22.20;3.40;;;;;;;;;;4984271;28;20192;-47
2021/03/22 01:44:31;;;;;;;15.93;2.93;;;;;;;;;;4979937;28;20228;-48
2021/03/22 01:47:19;;;;;;;17.27;4.37;;;;;;;;;;4988825;28;20238;-47
2021/03/22 01:49:58;;;;;;;19.17;3.83;;;;;;;;;;4988797;28;20275;-46
2021/03/22 01:52:25;;;;;;;18.80;3.80;;;;;;;;;;4985432;28;20195;-47
2021/03/22 01:54:56;;;;;;;20.07;3.70;;;;;;;;;;4971139;28;20215;-47
2021/03/22 01:57:25;;;;;;;15.50;3.87;;;;;;;;;;4988931;28;20222;-48
2021/03/22 01:59:53;;;;;;;15.13;4.07;;;;;;;;;;4981051;28;20588;-47
2021/03/22 02:02:19;;;;;;;23.17;3.77;;;;;;;;;;4969232;28;20645;-47
2021/03/22 02:04:44;;;;;;;15.20;3.13;;;;;;;;;;4986699;28;20208;-47
2021/03/22 02:07:09;;;;;;;28.57;4.03;;;;;;;;;;4985773;28;20188;-47
2021/03/22 02:09:35;;;;;;;28.53;4.60;;;;;;;;;;4972004;28;20822;-47
2021/03/22 02:12:00;;;;;;;16.60;3.37;;;;;;;;;;4979927;28;20188;-47
2021/03/22 02:14:26;;;;;;;17.87;3.50;;;;;;;;;;4984162;28;20536;-48
2021/03/22 02:17:15;;;;;;;22.17;4.50;;;;;;;;;;4987695;28;20199;-47
2021/03/22 02:20:02;;;;;;;16.80;3.40;;;;;;;;;;4978434;28;20179;-47
2021/03/22 02:22:41;;;;;;;21.13;3.90;;;;;;;;;;4986583;28;20299;-48
2021/03/22 02:25:23;;;;;;;16.70;2.97;;;;;;;;;;4962675;28;20219;-46
2021/03/22 02:28:10;;;;;;;20.00;4.67;;;;;;;;;;4963530;28;20262;-47
2021/03/22 02:31:08;;;;;;;13.43;3.13;;;;;;;;;;4983756;28;20192;-47
2021/03/22 02:34:13;;;;;;;15.97;3.73;;;;;;;;;;4984600;28;20583;-47
2021/03/22 02:36:54;;;;;;;22.27;3.80;;;;;;;;;;4986606;28;20190;-48
2021/03/22 02:39:20;;;;;;;19.60;3.40;;;;;;;;;;4988498;28;20195;-47
2021/03/22 02:41:56;;;;;;;17.63;3.57;;;;;;;;;;4986884;28;20551;-47
2021/03/22 02:44:26;;;;;;;20.80;3.83;;;;;;;;;;4978004;28;20195;-48
2021/03/22 02:46:56;;;;;;;15.67;3.80;;;;;;;;;;4993876;28;20251;-48
2021/03/22 02:49:23;;;;;;;21.90;3.40;;;;;;;;;;4969567;28;20184;-46
2021/03/22 02:52:08;;;;;;;22.80;3.53;;;;;;;;;;4978346;28;20192;-48
2021/03/22 02:54:55;;;;;;;25.47;3.47;;;;;;;;;;4988753;28;20713;-47
2021/03/22 02:57:43;;;;;;;20.27;4.03;;;;;;;;;;4986471;28;20219;-47
2021/03/22 03:00:15;;;;;;;17.87;4.23;;;;;;;;;;4964233;28;20191;-46
2021/03/22 03:02:42;;;;;;;27.90;4.63;;;;;;;;;;4964520;28;20207;-47
2021/03/22 03:05:10;;;;;;;22.37;3.57;;;;;;;;;;4990693;28;20423;-48
2021/03/22 03:07:35;;;;;;;25.97;4.20;;;;;;;;;;4978419;28;20199;-47
2021/03/22 03:10:00;;;;;;;17.97;3.47;;;;;;;;;;4980384;28;20267;-47
2021/03/22 03:12:26;;;;;;;12.17;3.40;;;;;;;;;;4984306;28;20267;-46
2021/03/22 03:14:54;;;;;;;23.07;3.90;;;;;;;;;;4973046;28;20599;-47
2021/03/22 03:17:21;;;;;;;19.70;3.63;;;;;;;;;;4968793;28;20202;-49
2021/03/22 03:19:48;;;;;;;22.43;4.20;;;;;;;;;;4984989;28;20189;-47
2021/03/22 03:22:13;;;;;;;22.43;4.17;;;;;;;;;;4985821;28;20188;-48
2021/03/22 03:24:40;;;;;;;17.17;3.30;;;;;;;;;;4954783;28;20219;-47
2021/03/22 03:27:07;;;;;;;15.53;3.90;;;;;;;;;;4986878;28;20191;-47
2021/03/22 03:29:32;;;;;;;19.70;4.27;;;;;;;;;;4978780;28;20196;-47
2021/03/22 03:31:57;;;;;;;18.07;3.77;;;;;;;;;;4993585;28;20278;-47
2021/03/22 03:34:25;;;;;;;25.40;4.47;;;;;;;;;;4987607;28;20652;-47
2021/03/22 03:36:50;;;;;;;19.00;4.07;;;;;;;;;;4977413;28;20239;-47
2021/03/22 03:39:16;;;;;;;19.70;3.93;;;;;;;;;;4977649;28;20564;-47
2021/03/22 03:41:41;;;;;;;22.10;3.67;;;;;;;;;;4976559;28;20210;-47
2021/03/22 03:44:10;;;;;;;21.23;4.20;;;;;;;;;;4981740;28;20208;-47
2021/03/22 03:46:37;;;;;;;15.00;3.90;;;;;;;;;;4980906;28;20291;-46
2021/03/22 03:49:02;;;;;;;20.27;3.50;;;;;;;;;;4983012;28;20532;-46
2021/03/22 03:51:28;;;;;;;17.70;3.57;;;;;;;;;;4983952;28;20728;-47
2021/03/22 03:53:53;;;;;;;18.67;4.20;;;;;;;;;;4993739;28;20543;-47
2021/03/22 03:56:19;;;;;;;19.63;3.90;;;;;;;;;;4980521;28;20212;-48
2021/03/22 03:58:44;;;;;;;17.93;3.30;;;;;;;;;;4961933;28;20223;-47
2021/03/22 04:01:10;;;;;;;11.70;3.17;;;;;;;;;;4981053;28;20184;-46
2021/03/22 04:03:38;;;;;;;22.30;3.97;;;;;;;;;;4991497;28;20190;-48
2021/03/22 04:06:14;;;;;;;16.33;3.97;;;;;;;;;;4992320;28;20230;-48
2021/03/22 04:08:45;;;;;;;17.93;4.00;;;;;;;;;;4987581;28;20188;-47
2021/03/22 04:11:12;;;;;;;15.83;3.67;;;;;;;;;;4973887;28;20288;-46
2021/03/22 04:13:38;;;;;;;18.60;3.97;;;;;;;;;;4983772;28;20188;-47
2021/03/22 04:16:11;;;;;;;21.33;4.30;;;;;;;;;;4992445;28;20573;-48
2021/03/22 04:18:38;;;;;;;24.20;4.20;;;;;;;;;;4986825;28;20194;-47
2021/03/22 04:21:13;;;;;;;17.43;3.47;;;;;;;;;;4987547;28;20188;-46
2021/03/22 04:23:41;;;;;;;19.40;3.33;;;;;;;;;;4988568;28;20261;-47
2021/03/22 04:26:07;;;;;;;25.73;3.60;;;;;;;;;;4988970;28;20219;-47
2021/03/22 04:28:34;;;;;;;21.70;4.00;;;;;;;;;;4983980;28;20196;-47
2021/03/22 04:31:00;;;;;;;23.30;4.20;;;;;;;;;;4980100;28;20361;-47
2021/03/22 04:33:25;;;;;;;20.03;3.57;;;;;;;;;;4994687;28;20211;-47
2021/03/22 04:35:51;;;;;;;19.80;4.33;;;;;;;;;;4979006;28;20572;-48
2021/03/22 04:38:16;;;;;;;19.87;4.10;;;;;;;;;;4991157;28;20202;-47
2021/03/22 04:40:42;;;;;;;21.60;4.33;;;;;;;;;;4985375;28;20195;-46
2021/03/22 04:43:07;;;;;;;18.83;3.33;;;;;;;;;;4986758;28;20718;-46
2021/03/22 04:45:33;;;;;;;22.07;4.20;;;;;;;;;;4975932;28;20299;-50
2021/03/22 04:47:58;;;;;;;17.17;3.80;;;;;;;;;;4973725;28;20188;-46
2021/03/22 04:50:25;;;;;;;16.43;4.57;;;;;;;;;;4986169;28;20251;-47
2021/03/22 04:52:51;;;;;;;17.13;3.67;;;;;;;;;;4982189;28;20203;-47
2021/03/22 04:55:18;;;;;;;18.73;3.40;;;;;;;;;;4998130;28;20208;-46
2021/03/22 04:57:44;;;;;;;17.93;3.97;;;;;;;;;;4989133;28;20271;-47
2021/03/22 05:00:18;;;;;;;20.73;3.57;;;;;;;;;;4985506;28;20283;-47
2021/03/22 05:02:43;;;;;;;15.53;3.73;;;;;;;;;;4985249;28;20223;-47
2021/03/22 05:05:09;;;;;;;22.37;3.87;;;;;;;;;;4982053;28;20219;-47
2021/03/22 05:07:35;;;;;;;19.97;3.80;;;;;;;;;;4968938;28;20184;-47
2021/03/22 05:10:01;;;;;;;20.83;3.53;;;;;;;;;;4973993;28;20284;-47
2021/03/22 05:12:26;;;;;;;18.67;3.60;;;;;;;;;;4988126;28;20634;-47
2021/03/22 05:14:51;;;;;;;18.00;3.50;;;;;;;;;;4984902;28;20230;-47
2021/03/22 05:17:17;;;;;;;18.10;3.97;;;;;;;;;;4977386;28;20183;-47
2021/03/22 05:19:42;;;;;;;29.47;3.67;;;;;;;;;;4980945;28;20566;-48
2021/03/22 05:22:07;;;;;;;14.80;3.73;;;;;;;;;;4984960;28;20296;-48
2021/03/22 05:24:33;;;;;;;15.40;3.57;;;;;;;;;;4988314;28;20231;-47
2021/03/22 05:26:58;;;;;;;17.70;3.90;;;;;;;;;;4992430;28;20183;-47
2021/03/22 05:29:26;;;;;;;15.67;3.43;;;;;;;;;;4986021;28;20203;-49
2021/03/22 05:31:52;;;;;;;18.27;3.70;;;;;;;;;;4983622;28;20188;-51
2021/03/22 05:34:18;;;;;;;18.53;3.53;;;;;;;;;;4992486;28;20195;-46
2021/03/22 05:36:43;;;;;;;15.13;3.43;;;;;;;;;;4977451;28;20188;-50
2021/03/22 05:39:09;;;;;;;21.73;3.50;;;;;;;;;;4973250;28;20188;-47
2021/03/22 05:42:00;;;;;;;18.07;3.80;;;;;;;;;;4995235;28;20202;-49
2021/03/22 05:44:40;;;;;;;18.90;3.50;;;;;;;;;;4988647;28;20192;-48
2021/03/22 05:47:24;;;;;;;13.93;3.57;;;;;;;;;;4987465;28;20199;-47
2021/03/22 05:50:03;;;;;;;19.17;3.77;;;;;;;;;;4989312;28;20202;-48
2021/03/22 05:52:47;;;;;;;17.20;4.00;;;;;;;;;;4954362;28;20254;-48
2021/03/22 05:55:32;;;;;;;12.20;3.70;;;;;;;;;;4979431;28;20648;-48
2021/03/22 05:58:27;;;;;;;16.07;3.70;;;;;;;;;;4981153;28;20192;-48
2021/03/22 06:01:01;;;;;;;16.47;3.27;;;;;;;;;;4977318;28;20254;-47
2021/03/22 06:03:39;;;;;;;18.47;3.17;;;;;;;;;;4966334;28;20283;-48
2021/03/22 06:06:16;;;;;;;14.77;2.93;;;;;;;;;;4980844;28;20216;-49
2021/03/22 06:09:07;;;;;;;16.57;3.50;;;;;;;;;;4987481;28;20648;-48
2021/03/22 06:11:32;;;;;;;15.40;3.07;;;;;;;;;;4980083;28;20228;-46
2021/03/22 06:14:22;;;;;;;23.63;4.00;;;;;;;;;;4974803;28;20315;-46
2021/03/22 06:16:56;;;;;;;13.73;2.60;;;;;;;;;;4978900;28;20276;-48
2021/03/22 06:19:22;;;;;;;18.43;4.03;;;;;;;;;;4996601;28;20196;-47
2021/03/22 06:21:49;;;;;;;17.73;4.17;;;;;;;;;;4994404;28;20613;-47
2021/03/22 06:24:27;;;;;;;16.40;3.50;;;;;;;;;;4986005;28;20587;-48
2021/03/22 06:26:56;;;;;;;17.80;3.10;;;;;;;;;;4985301;28;20583;-47
2021/03/22 06:29:33;;;;;;;13.93;3.23;;;;;;;;;;4992734;28;20271;-46
2021/03/22 06:32:06;;;;;;;20.30;3.90;;;;;;;;;;4966138;28;20191;-47
2021/03/22 06:34:43;;;;;;;22.87;3.67;;;;;;;;;;4982380;28;20219;-48
2021/03/22 06:37:12;;;;;;;16.57;3.77;;;;;;;;;;4985358;28;20192;-47
2021/03/22 06:39:37;;;;;;;18.43;3.80;;;;;;;;;;4975302;28;20696;-48
2021/03/22 06:42:18;;;;;;;18.87;3.80;;;;;;;;;;4985700;28;20188;-47
2021/03/22 06:44:44;;;;;;;18.60;3.77;;;;;;;;;;4997345;28;20203;-48
2021/03/22 06:47:12;;;;;;;13.00;4.50;;;;;;;;;;4982986;28;20200;-47
2021/03/22 06:49:43;;;;;;;15.97;3.73;;;;;;;;;;4984477;28;20246;-47
2021/03/22 06:52:19;;;;;;;14.73;3.77;;;;;;;;;;4987458;28;20291;-48
2021/03/22 06:54:49;;;;;;;20.60;4.07;;;;;;;;;;4981761;28;20227;-51
2021/03/22 06:57:19;;;;;;;18.90;3.50;;;;;;;;;;4974028;28;20645;-47
2021/03/22 07:00:03;;;;;;;22.67;4.40;;;;;;;;;;4982117;28;20652;-47
2021/03/22 07:02:29;;;;;;;17.57;4.73;;;;;;;;;;4964040;28;20188;-47
2021/03/22 07:04:58;;;;;;;18.23;4.07;;;;;;;;;;4983245;28;20259;-47
2021/03/22 07:07:25;;;;;;;16.97;3.73;;;;;;;;;;4993286;28;20222;-46
2021/03/22 07:09:56;;;;;;;17.70;4.20;;;;;;;;;;4970663;28;20193;-50
2021/03/22 07:12:41;;;;;;;22.97;4.63;;;;;;;;;;4987169;28;20204;-48
2021/03/22 07:15:30;;;;;;;14.20;3.43;;;;;;;;;;4978422;28;20203;-49
2021/03/22 07:18:31;;;;;;;19.47;3.57;;;;;;;;;;4983944;28;20201;-46
2021/03/22 07:21:19;;;;;;;17.30;4.10;;;;;;;;;;4981196;28;20735;-46
2021/03/22 07:23:44;;;;;;;15.17;3.83;;;;;;;;;;4969412;28;20183;-48
2021/03/22 07:26:32;;;;;;;25.70;5.47;;;;;;;;;;4990572;28;20215;-46
2021/03/22 07:29:21;;;;;;;14.47;3.87;;;;;;;;;;4980122;28;20188;-48
2021/03/22 07:31:54;;;;;;;19.00;3.97;;;;;;;;;;4985986;28;20191;-46
2021/03/22 07:34:28;;;;;;;19.67;4.37;;;;;;;;;;4990768;28;20250;-47
2021/03/22 07:36:56;;;;;;;19.60;3.70;;;;;;;;;;4986455;28;20637;-47
2021/03/22 07:39:42;;;;;;;16.43;4.00;;;;;;;;;;4987288;28;20183;-47
2021/03/22 07:42:22;;;;;;;13.77;3.40;;;;;;;;;;4977149;28;20283;-47
2021/03/22 07:45:09;;;;;;;14.63;3.87;;;;;;;;;;4965923;28;20212;-46
2021/03/22 07:48:06;;;;;;;10.50;2.97;;;;;;;;;;4975923;28;20227;-48
2021/03/22 07:50:51;;;;;;;15.63;3.67;;;;;;;;;;4974976;28;20192;-47
2021/03/22 07:54:04;;;;;;;20.17;3.33;;;;;;;;;;4983282;28;20187;-47
2021/03/22 07:56:56;;;;;;;14.87;3.30;;;;;;;;;;4963311;28;20712;-48
2021/03/22 07:59:31;;;;;;;17.57;4.00;;;;;;;;;;4973300;28;20242;-49
2021/03/22 08:01:59;;;;;;;12.47;3.33;;;;;;;;;;4972546;28;20184;-48
2021/03/22 08:04:43;;;;;;;23.20;4.77;;;;;;;;;;4982513;28;20246;-47
2021/03/22 08:07:33;;;;;;;17.87;3.70;;;;;;;;;;4978633;28;20206;-51
2021/03/22 08:10:17;;;;;;;13.97;4.10;;;;;;;;;;4982748;28;20279;-48
2021/03/22 08:13:14;;;;;;;16.63;3.90;;;;;;;;;;4985363;28;20405;-48
2021/03/22 08:16:13;;;;;;;17.97;3.63;;;;;;;;;;4982635;28;20692;-47
2021/03/22 08:18:50;;;;;;;12.90;3.30;;;;;;;;;;4984601;28;20224;-46
2021/03/22 08:21:25;;;;;;;17.07;3.70;;;;;;;;;;4985319;28;20651;-46
2021/03/22 08:23:56;;;;;;;14.23;3.83;;;;;;;;;;4984671;28;20285;-47
2021/03/22 08:26:37;;;;;;;15.03;3.77;;;;;;;;;;4979229;28;20239;-47
2021/03/22 08:29:02;;;;;;;19.30;3.90;;;;;;;;;;4964659;28;20183;-47
2021/03/22 08:31:40;;;;;;;13.97;4.07;;;;;;;;;;4982395;28;20176;-48
2021/03/22 08:34:27;;;;;;;19.77;4.00;;;;;;;;;;4987304;28;20195;-47
2021/03/22 08:37:14;;;;;;;15.80;3.73;;;;;;;;;;4985768;28;20610;-46
2021/03/22 08:39:59;;;;;;;14.03;4.10;;;;;;;;;;4978069;28;20204;-48
2021/03/22 08:42:28;;;;;;;11.00;3.50;;;;;;;;;;4966552;28;20258;-47
2021/03/22 08:45:18;;;;;;;10.93;3.23;;;;;;;;;;4982398;28;20208;-51
2021/03/22 08:47:50;;;;;;;14.80;3.60;;;;;;;;;;4986784;28;20275;-46
2021/03/22 08:50:25;;;;;;;15.00;3.57;;;;;;;;;;4987741;28;20195;-47
2021/03/22 08:52:58;;;;;;;11.83;3.67;;;;;;;;;;4968873;28;20278;-47
2021/03/22 08:55:27;;;;;;;12.30;3.03;;;;;;;;;;4975857;28;20219;-47
2021/03/22 08:58:01;;;;;;;15.90;3.77;;;;;;;;;;4988434;28;20200;-47
2021/03/22 09:00:26;;;;;;;14.47;3.33;;;;;;;;;;4990633;28;20202;-49
2021/03/22 09:03:03;;;;;;;13.53;3.90;;;;;;;;;;4979606;28;20196;-48
2021/03/22 09:05:31;;;;;;;10.77;3.77;;;;;;;;;;4982223;28;20281;-46
2021/03/22 09:08:22;;;;;;;10.43;3.10;;;;;;;;;;4989638;28;20256;-48
2021/03/22 09:10:50;;;;;;;13.27;3.43;;;;;;;;;;4984028;28;20359;-48
2021/03/22 09:13:37;;;;;;;16.27;3.37;;;;;;;;;;4987132;28;20199;-48
2021/03/22 09:16:11;;;;;;;12.90;3.47;;;;;;;;;;4988769;28;20206;-47
2021/03/22 09:19:08;;;;;;;13.77;3.47;;;;;;;;;;4982503;28;20201;-47
2021/03/22 09:21:36;;;;;;;9.97;3.13;;;;;;;;;;4977404;28;20196;-47
2021/03/22 09:24:02;;;;;;;11.33;2.80;;;;;;;;;;4987325;28;20196;-49
2021/03/22 09:26:52;;;;;;;13.13;3.40;;;;;;;;;;4955961;28;20287;-48
2021/03/22 09:29:41;;;;;;;10.47;3.37;;;;;;;;;;4988625;28;20511;-46
2021/03/22 09:32:28;;;;;;;12.03;3.27;;;;;;;;;;4982094;28;20218;-48
2021/03/22 09:35:06;;;;;;;11.10;3.07;;;;;;;;;;4981507;28;20217;-49
2021/03/22 09:38:21;;;;;;;7.60;2.53;;;;;;;;;;4980452;28;20307;-48
2021/03/22 09:40:51;;;;;;;12.73;3.37;;;;;;;;;;4959961;28;20726;-47
2021/03/22 09:43:16;;;;;;;16.67;3.57;;;;;;;;;;4985016;28;20192;-48
2021/03/22 09:45:51;;;;;;;13.30;3.27;;;;;;;;;;4987312;28;20306;-48
2021/03/22 09:48:16;;;;;;;9.87;3.13;;;;;;;;;;4980818;28;20667;-46
2021/03/22 09:50:44;;;;;;;9.87;2.97;;;;;;;;;;4983645;28;20192;-47
2021/03/22 09:53:12;;;;;;;9.60;2.53;;;;;;;;;;4969728;28;20684;-47
2021/03/22 09:55:56;;;;;;;9.23;2.97;;;;;;;;;;4988082;28;20499;-48
2021/03/22 09:58:39;;;;;;;9.13;2.57;;;;;;;;;;4986905;28;20291;-47
2021/03/22 10:01:14;;;;;;;9.80;2.60;;;;;;;;;;4984823;28;20564;-48
2021/03/22 10:03:41;;;;;;;10.60;3.50;;;;;;;;;;4986680;28;20278;-48
2021/03/22 10:06:39;;;;;;;12.07;2.87;;;;;;;;;;4985520;28;20393;-48
2021/03/22 10:09:10;;;;;;;10.80;3.13;;;;;;;;;;4983532;28;20191;-48
2021/03/22 10:11:41;;;;;;;8.00;2.60;;;;;;;;;;4970836;28;20550;-48
2021/03/22 10:14:10;;;;;;;10.53;3.53;;;;;;;;;;4980432;28;20176;-49
2021/03/22 10:16:39;;;;;;;9.80;2.83;;;;;;;;;;4992135;28;20245;-48
2021/03/22 10:19:14;;;;;;;9.63;3.00;;;;;;;;;;4986939;28;20191;-48
2021/03/22 10:21:50;;;;;;;10.13;3.20;;;;;;;;;;4982306;28;20295;-46
2021/03/22 10:24:46;;;;;;;9.57;2.97;;;;;;;;;;4976222;28;20188;-48
2021/03/22 10:27:26;;;;;;;11.87;3.03;;;;;;;;;;4983636;28;20196;-47
2021/03/22 10:30:11;;;;;;;10.37;2.90;;;;;;;;;;4969595;28;20206;-46
2021/03/22 10:32:42;;;;;;;6.07;2.80;;;;;;;;;;4970056;28;20196;-49
2021/03/22 10:35:15;;;;;;;6.27;2.27;;;;;;;;;;4970835;28;20211;-47
2021/03/22 10:37:49;;;;;;;8.33;2.23;;;;;;;;;;4985940;28;20189;-47
2021/03/22 10:40:19;;;;;;;7.93;3.00;;;;;;;;;;4977997;28;20195;-46
2021/03/22 10:42:44;;;;;;;7.70;2.27;;;;;;;;;;4979340;28;20254;-49
2021/03/22 10:45:29;;;;;;;7.13;2.77;;;;;;;;;;4982732;28;20686;-47
2021/03/22 10:47:57;;;;;;;12.03;2.97;;;;;;;;;;4971588;28;20184;-47
2021/03/22 10:50:31;;;;;;;8.90;3.37;;;;;;;;;;4987951;28;20427;-47
2021/03/22 10:53:15;;;;;;;12.70;3.07;;;;;;;;;;4985413;28;20198;-48
2021/03/22 10:55:44;;;;;;;8.87;2.93;;;;;;;;;;4980738;28;20702;-47
2021/03/22 10:58:34;;;;;;;11.53;2.87;;;;;;;;;;4987543;28;20200;-47
2021/03/22 11:01:07;;;;;;;11.07;2.63;;;;;;;;;;4967742;28;20235;-47
2021/03/22 11:03:35;;;;;;;8.43;2.43;;;;;;;;;;4976601;28;20189;-47
2021/03/22 11:06:09;;;;;;;5.90;1.87;;;;;;;;;;4984334;28;20829;-47
2021/03/22 11:08:38;;;;;;;8.17;2.10;;;;;;;;;;4974056;28;20188;-49
2021/03/22 11:11:09;;;;;;;6.93;2.77;;;;;;;;;;4982820;28;20188;-48
2021/03/22 11:13:38;;;;;;;5.03;2.10;;;;;;;;;;4981736;28;20195;-49
2021/03/22 11:16:07;;;;;;;8.50;2.80;;;;;;;;;;4949687;28;20208;-47
2021/03/22 11:18:34;;;;;;;6.50;2.53;;;;;;;;;;4963848;28;20189;-47
2021/03/22 11:21:00;;;;;;;9.07;2.50;;;;;;;;;;4984645;28;20680;-47
2021/03/22 11:23:51;;;;;;;5.47;2.20;;;;;;;;;;4985800;28;20226;-47
2021/03/22 11:26:31;;;;;;;4.67;2.07;;;;;;;;;;4988885;28;20636;-47
2021/03/22 11:29:15;;;;;;;7.07;2.47;;;;;;;;;;4979521;28;20196;-48
2021/03/22 11:31:43;;;;;;;7.40;2.27;;;;;;;;;;4985857;28;20199;-47
2021/03/22 11:34:26;;;;;;;6.90;2.33;;;;;;;;;;4986836;28;20190;-48
2021/03/22 11:37:26;;;;;;;8.53;2.30;;;;;;;;;;4969239;28;20180;-48
2021/03/22 11:40:18;;;;;;;8.90;2.17;;;;;;;;;;4974148;28;20192;-47
2021/03/22 11:42:54;;;;;;;10.73;2.50;;;;;;;;;;4974414;28;20689;-49
2021/03/22 11:45:27;;;;;;;7.83;2.20;;;;;;;;;;4992185;28;20207;-48
2021/03/22 11:47:53;;;;;;;9.50;2.37;;;;;;;;;;4986251;28;20202;-47
2021/03/22 11:50:22;;;;;;;7.40;2.10;;;;;;;;;;4986537;28;20549;-47
2021/03/22 11:53:06;;;;;;;5.33;2.40;;;;;;;;;;4972867;28;20711;-46
2021/03/22 11:55:33;;;;;;;6.23;2.23;;;;;;;;;;4974490;28;20694;-47
2021/03/22 11:57:58;;;;;;;8.30;2.57;;;;;;;;;;4981937;28;20727;-48
2021/03/22 12:00:34;;;;;;;7.83;2.50;;;;;;;;;;4976521;28;20227;-48
2021/03/22 12:03:08;;;;;;;4.97;2.07;;;;;;;;;;4974319;28;20192;-48
2021/03/22 12:05:40;;;;;;;7.63;1.93;;;;;;;;;;4987585;28;20270;-46
2021/03/22 12:08:45;;;;;;;5.10;2.00;;;;;;;;;;4985349;28;20198;-46
2021/03/22 12:11:27;;;;;;;6.10;1.90;;;;;;;;;;4983024;28;20188;-47
2021/03/22 12:13:59;;;;;;;7.10;2.40;;;;;;;;;;4975759;28;20199;-46
2021/03/22 12:16:28;;;;;;;6.63;2.33;;;;;;;;;;4983491;28;20618;-47
2021/03/22 12:18:56;;;;;;;5.07;2.60;;;;;;;;;;4981232;28;20192;-48
2021/03/22 12:21:22;;;;;;;5.40;2.13;;;;;;;;;;4985815;28;20192;-46
2021/03/22 12:23:48;;;;;;;4.73;2.30;;;;;;;;;;4968882;28;20247;-47
2021/03/22 12:26:17;;;;;;;5.40;2.13;;;;;;;;;;4987423;28;20219;-47
2021/03/22 12:28:55;;;;;;;3.93;1.73;;;;;;;;;;4990300;28;20207;-46
2021/03/22 12:31:33;;;;;;;3.97;2.10;;;;;;;;;;4983561;28;20188;-51
2021/03/22 12:34:01;;;;;;;5.03;2.50;;;;;;;;;;4990100;28;20262;-47
2021/03/22 12:36:27;;;;;;;5.70;2.20;;;;;;;;;;4988851;28;20703;-46
2021/03/22 12:38:53;;;;;;;7.07;2.07;;;;;;;;;;4988933;28;20180;-46
2021/03/22 12:41:29;;;;;;;4.77;2.20;;;;;;;;;;4985999;28;20183;-46
2021/03/22 12:43:59;;;;;;;5.33;1.70;;;;;;;;;;4988943;28;20192;-46
2021/03/22 12:46:25;;;;;;;4.13;2.13;;;;;;;;;;4988442;28;20584;-45
2021/03/22 12:48:50;;;;;;;6.97;2.40;;;;;;;;;;4989275;28;20282;-46
2021/03/22 12:51:15;;;;;;;5.70;2.00;;;;;;;;;;4990580;28;20215;-47
2021/03/22 12:53:41;;;;;;;4.53;2.07;;;;;;;;;;4988195;28;20184;-47
2021/03/22 12:56:06;;;;;;;5.77;1.90;;;;;;;;;;4987687;28;20208;-47
2021/03/22 12:58:32;;;;;;;7.87;2.53;;;;;;;;;;4991953;28;20196;-47
2021/03/22 13:00:58;;;;;;;6.37;2.30;;;;;;;;;;4990507;28;20188;-46
2021/03/22 13:03:25;;;;;;;6.83;2.40;;;;;;;;;;4977321;28;20195;-47
2021/03/22 13:05:55;;;;;;;8.50;2.50;;;;;;;;;;4988482;28;20303;-51
2021/03/22 13:08:22;;;;;;;8.10;2.37;;;;;;;;;;4990498;28;20664;-46
2021/03/22 13:10:47;;;;;;;6.30;2.20;;;;;;;;;;4985958;28;20195;-48
2021/03/22 13:13:13;;;;;;;8.73;2.50;;;;;;;;;;4980744;28;20685;-46
2021/03/22 13:15:42;;;;;;;6.93;2.30;;;;;;;;;;4986671;28;20200;-46
2021/03/22 13:18:18;;;;;;;6.40;2.37;;;;;;;;;;4971523;28;20250;-47
2021/03/22 13:20:45;;;;;;;7.87;2.63;;;;;;;;;;4988364;28;20195;-46
2021/03/22 13:23:11;;;;;;;6.33;2.20;;;;;;;;;;4986576;28;20227;-50
2021/03/22 13:25:39;;;;;;;5.80;2.53;;;;;;;;;;4978646;28;20248;-48
2021/03/22 13:28:13;;;;;;;7.30;2.40;;;;;;;;;;4980117;28;20224;-46
2021/03/22 13:30:38;;;;;;;5.77;2.50;;;;;;;;;;4978643;28;20204;-47
2021/03/22 13:33:03;;;;;;;7.00;2.40;;;;;;;;;;4966752;28;20191;-47
2021/03/22 13:35:29;;;;;;;5.90;2.17;;;;;;;;;;4985256;28;20208;-47
2021/03/22 13:37:54;;;;;;;6.00;2.37;;;;;;;;;;4984246;28;20661;-47
2021/03/22 13:40:20;;;;;;;7.57;2.57;;;;;;;;;;4980462;28;20767;-49
2021/03/22 13:42:46;;;;;;;8.37;2.60;;;;;;;;;;4982663;28;20686;-47
2021/03/22 13:45:32;;;;;;;6.13;2.30;;;;;;;;;;4987888;28;20204;-47
2021/03/22 13:47:57;;;;;;;5.50;2.47;;;;;;;;;;4984386;28;20696;-47
2021/03/22 13:50:23;;;;;;;6.93;2.63;;;;;;;;;;4968321;28;20235;-47
2021/03/22 13:52:50;;;;;;;6.67;2.80;;;;;;;;;;4987237;28;20192;-47
2021/03/22 13:55:17;;;;;;;5.60;2.57;;;;;;;;;;4983607;28;20216;-47
2021/03/22 13:57:43;;;;;;;7.93;2.60;;;;;;;;;;4986407;28;20287;-51
2021/03/22 14:00:11;;;;;;;6.37;3.00;;;;;;;;;;4979803;28;20283;-49
2021/03/22 14:02:37;;;;;;;8.80;2.90;;;;;;;;;;4971289;28;20196;-47
2021/03/22 14:05:03;;;;;;;7.07;2.70;;;;;;;;;;4985734;28;20245;-50
2021/03/22 14:07:28;;;;;;;5.17;2.23;;;;;;;;;;4990329;28;20613;-47
2021/03/22 14:09:54;;;;;;;6.03;2.70;;;;;;;;;;4984686;28;20246;-47
2021/03/22 14:12:20;;;;;;;7.40;3.00;;;;;;;;;;4948234;28;20567;-48
2021/03/22 14:14:47;;;;;;;4.77;2.47;;;;;;;;;;4976688;28;20207;-47
2021/03/22 14:17:12;;;;;;;7.43;2.47;;;;;;;;;;4980745;28;20188;-47
2021/03/22 14:19:37;;;;;;;8.20;2.80;;;;;;;;;;4984973;28;20195;-46
2021/03/22 14:22:03;;;;;;;5.67;2.60;;;;;;;;;;4985502;28;20196;-46
2021/03/22 14:24:28;;;;;;;4.23;2.33;;;;;;;;;;4976025;28;20335;-49
2021/03/22 14:26:54;;;;;;;9.13;2.90;;;;;;;;;;4978639;28;20689;-47
2021/03/22 14:29:19;;;;;;;4.63;2.50;;;;;;;;;;4988918;28;20680;-46
2021/03/22 14:31:44;;;;;;;5.63;2.50;;;;;;;;;;4985400;28;20199;-49
2021/03/22 14:34:10;;;;;;;6.90;2.27;;;;;;;;;;4982184;28;20214;-48
2021/03/22 14:36:35;;;;;;;9.10;2.70;;;;;;;;;;4982420;28;20692;-47
2021/03/22 14:39:02;;;;;;;7.20;2.90;;;;;;;;;;4980434;28;20694;-49
2021/03/22 14:41:29;;;;;;;8.63;3.33;;;;;;;;;;4981443;28;20612;-47
2021/03/22 14:43:54;;;;;;;5.20;3.03;;;;;;;;;;4979788;28;20684;-46
2021/03/22 14:46:20;;;;;;;5.80;2.63;;;;;;;;;;4981593;28;20208;-48
2021/03/22 14:48:45;;;;;;;4.70;2.47;;;;;;;;;;4981277;28;20492;-47
2021/03/22 14:51:11;;;;;;;6.17;2.40;;;;;;;;;;4983046;28;20676;-50
2021/03/22 14:53:37;;;;;;;7.50;2.73;;;;;;;;;;4981641;28;20619;-48
2021/03/22 14:56:04;;;;;;;5.47;2.50;;;;;;;;;;4981507;28;20216;-47
2021/03/22 14:58:30;;;;;;;5.77;2.43;;;;;;;;;;4965386;28;20262;-46
2021/03/22 15:00:55;;;;;;;7.90;2.80;;;;;;;;;;4967925;28;20662;-46
2021/03/22 15:03:21;;;;;;;5.43;2.57;;;;;;;;;;4980026;28;20297;-47